Главная страница
METAR-TAF:

METAR-TAF

Аэропорты :

Олесунн, Норвегия

широта: 62-34N, долгота: 006-07E, высота над уровнем моря: 2 м

Текущие метеонаблюдения

Эта сводка был подготовлена 32 минут назад, в 16:20 UTC
Ветер 4 Узел от северо-западный, изменяющийся между западный и северный
Температура 16°C
Влажность 72%
Давление 1008 hPa
Видимость 10 км и более
Нет облачности ниже 1500 м, и нет кучево-дождевой облачности

METAR: ENAL 221620Z 32004KT 280V360 CAVOK 16/11 Q1008

Время: 18:52 (16:52 UTC)

Прогноз

Эта сводка был подготовлена 2 часа и 52 минут назад, в 14:00 UTC
Прогноз действительный с 22-го 15 UTC до 22-го 22 UTC
Ветер 5 Узел от западно-северо-западный
Видимость 10 км и более
небольшая облачность на высоте 4000 фута
Рассеянная облачность на высоте 6000 фута

TAF: ENAL 221400Z 2215/2222 29005KT 9999 FEW040 BKN060

Метеонаблюдения и прогнозы для более 4000 аэропортов (сводки METAR и TAF).

Имеющиеся станции представлены на карте желтыми и красными точками.

Чтобы увидеть название станции, наведите на нее мышь.

Затем щелкните, чтобы увидеть метеонаблюдения и метеопрогнозы.

Управление картой: чтобы увеличить масштаб, щелкните зеленые кнопки с черным крестиком; чтобы уменьшить масштаб, щелкните зеленую кнопку с тире; для просмотра соседних карт щелкайте зеленые стрелки.


METAR-TAF: